Time;durP1;ratioP1;P1;durP2;ratioP2;P2;SDS_P1;SDS_P2;PMS_P1;PMS_P2;Temp;Humidity;BMP_temperature;BMP_pressure;BME280_temperature;BME280_humidity;BME280_pressure;Samples;Min_cycle;Max_cycle;Signal;HPM_P1;HPM_P2
2021/07/19 00:00:08;;;;;;;;;;;;;;;26.30;54.04;100614.50;5108899;28;1312;-65
2021/07/19 00:02:36;;;;;;;;;;;;;;;26.30;54.41;100611.81;5108169;28;798;-65
2021/07/19 00:05:03;;;;;;;;;;;;;;;26.30;54.99;100617.16;5108515;28;1350;-65
2021/07/19 00:07:30;;;;;;;;;;;;;;;26.29;55.28;100610.16;5090627;28;778;-66
2021/07/19 00:09:57;;;;;;;;;;;;;;;26.29;55.45;100607.47;5112589;28;1922;-65
2021/07/19 00:12:43;;;;;;;;;;;;;;;26.31;55.25;100610.84;5112482;28;1005;-65
2021/07/19 00:15:12;;;;;;;;;;;;;;;26.31;55.38;100607.34;5112552;28;1255;-65
2021/07/19 00:17:39;;;;;;;;;;;;;;;26.30;55.18;100606.47;5112122;28;852;-65
2021/07/19 00:20:06;;;;;;;;;;;;;;;26.29;55.37;100604.81;5112253;28;1289;-65
2021/07/19 00:22:33;;;;;;;;;;;;;;;26.28;55.65;100608.47;5112034;28;984;-66
2021/07/19 00:25:00;;;;;;;;;;;;;;;26.28;55.52;100605.78;5112159;28;1401;-65
2021/07/19 00:27:27;;;;;;;;;;;;;;;26.28;55.50;100605.78;5093754;28;857;-65
2021/07/19 00:29:54;;;;;;;;;;;;;;;26.27;55.38;100601.41;5093325;28;1975;-66
2021/07/19 00:32:20;;;;;;;;;;;;;;;26.27;55.26;100604.09;5092872;28;1296;-65
2021/07/19 00:34:47;;;;;;;;;;;;;;;26.27;55.10;100597.91;5111564;28;1287;-65
2021/07/19 00:37:14;;;;;;;;;;;;;;;26.27;54.62;100601.41;5111419;28;1110;-65
2021/07/19 00:39:40;;;;;;;;;;;;;;;26.26;54.55;100591.75;5093233;28;1266;-65
2021/07/19 00:42:07;;;;;;;;;;;;;;;26.26;54.26;100585.56;5111469;28;821;-65
2021/07/19 00:44:34;;;;;;;;;;;;;;;26.25;54.42;100590.03;5111050;28;1555;-66
2021/07/19 00:47:00;;;;;;;;;;;;;;;26.26;54.06;100589.06;5111830;28;797;-65
2021/07/19 00:49:31;;;;;;;;;;;;;;;26.25;53.93;100584.72;5076614;28;1914;-65
2021/07/19 00:51:58;;;;;;;;;;;;;;;26.25;54.10;100589.19;5111697;28;809;-65
2021/07/19 00:54:27;;;;;;;;;;;;;;;26.24;53.91;100584.81;5111381;28;1290;-66
2021/07/19 00:56:55;;;;;;;;;;;;;;;26.24;53.77;100587.50;5111298;28;755;-66
2021/07/19 00:59:23;;;;;;;;;;;;;;;26.24;53.59;100585.69;5092660;28;1276;-65
2021/07/19 01:01:50;;;;;;;;;;;;;;;26.23;52.89;100575.16;5111039;28;840;-65
2021/07/19 01:04:18;;;;;;;;;;;;;;;26.23;52.88;100580.50;5092768;28;1372;-66
2021/07/19 01:06:46;;;;;;;;;;;;;;;26.22;52.58;100576.13;5092609;28;1294;-65
2021/07/19 01:09:14;;;;;;;;;;;;;;;26.22;52.43;100576.13;5110732;28;1967;-65
2021/07/19 01:11:40;;;;;;;;;;;;;;;26.22;52.41;100571.63;5085995;28;1719;-65
2021/07/19 01:14:07;;;;;;;;;;;;;;;26.22;52.48;100570.78;5094858;28;1270;-64
2021/07/19 01:16:34;;;;;;;;;;;;;;;26.21;52.06;100569.94;5090396;28;800;-65
2021/07/19 01:19:01;;;;;;;;;;;;;;;26.20;52.06;100568.28;5089019;28;1295;-65
2021/07/19 01:21:37;;;;;;;;;;;;;;;26.20;51.70;100567.41;5071961;28;1260;-65
2021/07/19 01:24:27;;;;;;;;;;;;;;;26.19;52.14;100571.91;5090479;28;1393;-66
2021/07/19 01:26:57;;;;;;;;;;;;;;;26.18;51.85;100564.88;5052805;28;1042;-65
2021/07/19 01:29:24;;;;;;;;;;;;;;;26.19;51.65;100560.38;5090170;28;1906;-65
2021/07/19 01:31:52;;;;;;;;;;;;;;;26.18;51.67;100558.69;5090362;28;767;-65
2021/07/19 01:34:21;;;;;;;;;;;;;;;26.19;51.56;100557.72;5090424;28;1267;-65
2021/07/19 01:36:50;;;;;;;;;;;;;;;26.16;51.34;100550.00;5090061;28;1131;-65
2021/07/19 01:39:18;;;;;;;;;;;;;;;26.18;51.14;100548.84;5054949;28;1332;-65
2021/07/19 01:41:45;;;;;;;;;;;;;;;26.19;51.21;100545.22;5090167;28;798;-66
2021/07/19 01:44:12;;;;;;;;;;;;;;;26.20;51.33;100552.25;5071390;28;1659;-65
2021/07/19 01:46:40;;;;;;;;;;;;;;;26.19;50.82;100539.88;5090470;28;809;-65
2021/07/19 01:49:07;;;;;;;;;;;;;;;26.19;50.96;100534.53;5089966;28;1902;-65
2021/07/19 01:51:34;;;;;;;;;;;;;;;26.18;50.68;100538.19;5071394;28;1289;-65
2021/07/19 01:54:01;;;;;;;;;;;;;;;26.19;50.81;100534.53;5089699;28;1286;-66
2021/07/19 01:56:29;;;;;;;;;;;;;;;26.19;50.74;100531.03;5071749;28;1261;-66
2021/07/19 01:58:57;;;;;;;;;;;;;;;26.19;50.94;100534.53;5089477;28;1307;-65
2021/07/19 02:01:25;;;;;;;;;;;;;;;26.20;50.61;100536.22;5089780;28;826;-65
2021/07/19 02:03:53;;;;;;;;;;;;;;;26.20;50.80;100536.22;5089642;28;1283;-66
2021/07/19 02:06:20;;;;;;;;;;;;;;;26.19;50.98;100539.03;5089492;28;787;-66
2021/07/19 02:08:49;;;;;;;;;;;;;;;26.20;50.45;100532.72;5088648;28;1364;-66
2021/07/19 02:11:17;;;;;;;;;;;;;;;26.20;50.43;100530.03;5071355;28;1906;-65
2021/07/19 02:13:45;;;;;;;;;;;;;;;26.19;50.29;100537.22;5054370;28;1437;-66
2021/07/19 02:16:12;;;;;;;;;;;;;;;26.21;50.19;100537.06;5089364;28;766;-65
2021/07/19 02:18:41;;;;;;;;;;;;;;;26.21;50.75;100534.38;5054419;28;1311;-66
2021/07/19 02:21:08;;;;;;;;;;;;;;;26.20;50.89;100533.56;5089601;28;861;-66
2021/07/19 02:23:36;;;;;;;;;;;;;;;26.20;50.98;100530.91;5089196;28;1275;-66
2021/07/19 02:26:04;;;;;;;;;;;;;;;26.21;51.87;100532.56;5089265;28;778;-66
2021/07/19 02:28:32;;;;;;;;;;;;;;;26.21;52.56;100532.56;5089294;28;1298;-65
2021/07/19 02:31:00;;;;;;;;;;;;;;;26.20;52.87;100530.03;5088838;28;1902;-66
2021/07/19 02:33:28;;;;;;;;;;;;;;;26.21;53.07;100524.56;5089151;28;1413;-65
2021/07/19 02:35:56;;;;;;;;;;;;;;;26.21;53.22;100529.88;5089370;28;856;-65
2021/07/19 02:38:23;;;;;;;;;;;;;;;26.21;53.60;100521.03;5089159;28;1364;-65
2021/07/19 02:40:51;;;;;;;;;;;;;;;26.19;53.51;100523.00;5088798;28;1031;-66
2021/07/19 02:43:20;;;;;;;;;;;;;;;26.20;53.54;100532.72;5088698;28;1278;-66
2021/07/19 02:45:47;;;;;;;;;;;;;;;26.19;53.83;100528.34;5089153;28;1524;-66
2021/07/19 02:48:14;;;;;;;;;;;;;;;26.19;53.30;100523.84;5088893;28;1389;-65
2021/07/19 02:50:42;;;;;;;;;;;;;;;26.19;53.53;100521.19;5088853;28;1914;-66
2021/07/19 02:53:10;;;;;;;;;;;;;;;26.20;53.45;100516.69;5088820;28;1293;-65
2021/07/19 02:55:38;;;;;;;;;;;;;;;26.19;53.17;100518.53;5088944;28;782;-65
2021/07/19 02:58:06;;;;;;;;;;;;;;;26.19;53.19;100523.84;5069812;28;1444;-65
2021/07/19 03:00:34;;;;;;;;;;;;;;;26.19;53.30;100523.00;5070385;28;814;-66
2021/07/19 03:03:02;;;;;;;;;;;;;;;26.17;53.33;100523.16;5088413;28;1050;-65
2021/07/19 03:05:34;;;;;;;;;;;;;;;26.15;53.37;100511.75;5088129;28;785;-66
2021/07/19 03:08:04;;;;;;;;;;;;;;;26.16;52.94;100521.47;5088328;28;926;-65
2021/07/19 03:10:32;;;;;;;;;;;;;;;26.16;52.72;100523.28;5087433;28;1901;-66
2021/07/19 03:13:01;;;;;;;;;;;;;;;26.15;53.08;100514.44;5087888;28;992;-66
2021/07/19 03:15:29;;;;;;;;;;;;;;;26.14;52.19;100514.56;5088139;28;1290;-65
2021/07/19 03:17:56;;;;;;;;;;;;;;;26.15;52.08;100511.75;5069735;28;1173;-65
2021/07/19 03:20:24;;;;;;;;;;;;;;;26.15;52.23;100517.09;5088173;28;1203;-65
2021/07/19 03:22:52;;;;;;;;;;;;;;;26.15;52.17;100519.78;5088170;28;789;-66
2021/07/19 03:25:25;;;;;;;;;;;;;;;26.14;52.15;100514.56;5088419;28;1278;-65
2021/07/19 03:27:53;;;;;;;;;;;;;;;26.12;52.36;100516.50;5088033;28;837;-65
2021/07/19 03:30:20;;;;;;;;;;;;;;;26.12;52.02;100524.50;5069679;28;1906;-65
2021/07/19 03:32:48;;;;;;;;;;;;;;;26.11;52.36;100518.34;5088264;28;848;-65
2021/07/19 03:35:17;;;;;;;;;;;;;;;26.11;52.22;100521.03;5088258;28;1283;-65
2021/07/19 03:37:45;;;;;;;;;;;;;;;26.11;51.95;100522.84;5087859;28;860;-66
2021/07/19 03:40:12;;;;;;;;;;;;;;;26.09;51.71;100525.63;5087789;28;1271;-65
2021/07/19 03:42:40;;;;;;;;;;;;;;;26.08;51.97;100522.13;5088796;28;762;-66
2021/07/19 03:45:09;;;;;;;;;;;;;;;26.11;51.67;100517.50;5092524;28;1283;-66
2021/07/19 03:47:37;;;;;;;;;;;;;;;26.09;51.62;100517.63;5092053;28;992;-65
2021/07/19 03:50:05;;;;;;;;;;;;;;;26.09;51.59;100520.31;5092154;28;1973;-65
2021/07/19 03:52:33;;;;;;;;;;;;;;;26.09;51.68;100518.47;5092076;28;1131;-65
2021/07/19 03:54:59;;;;;;;;;;;;;;;26.08;52.06;100519.47;5092652;28;1356;-66
2021/07/19 03:57:26;;;;;;;;;;;;;;;26.07;52.06;100515.13;5094167;28;861;-66
2021/07/19 03:59:54;;;;;;;;;;;;;;;26.08;51.54;100511.44;5102218;28;1293;-66
2021/07/19 04:02:21;;;;;;;;;;;;;;;26.08;51.98;100506.09;5114755;28;1048;-66
2021/07/19 04:05:02;;;;;;;;;;;;;;;26.08;51.50;100508.78;5114256;28;1356;-66
2021/07/19 04:07:29;;;;;;;;;;;;;;;26.07;51.50;100514.28;5101763;28;824;-65
2021/07/19 04:09:56;;;;;;;;;;;;;;;26.06;51.54;100512.56;5092302;28;1902;-65
2021/07/19 04:12:25;;;;;;;;;;;;;;;26.06;51.23;100512.56;5092557;28;798;-65
2021/07/19 04:14:52;;;;;;;;;;;;;;;26.05;51.73;100509.06;5092181;28;1365;-65
2021/07/19 04:17:18;;;;;;;;;;;;;;;26.06;51.78;100507.25;5091844;28;841;-65
2021/07/19 04:19:45;;;;;;;;;;;;;;;26.03;51.68;100512.84;5092265;28;1338;-66
2021/07/19 04:22:12;;;;;;;;;;;;;;;26.05;51.81;100516.25;5091970;28;1206;-65
2021/07/19 04:24:39;;;;;;;;;;;;;;;26.06;51.61;100515.25;5073350;28;1294;-65
2021/07/19 04:27:06;;;;;;;;;;;;;;;26.05;51.48;100516.25;5073391;28;1168;-65
2021/07/19 04:29:33;;;;;;;;;;;;;;;26.05;51.85;100516.25;5091803;28;1226;-66
2021/07/19 04:31:59;;;;;;;;;;;;;;;26.05;51.62;100518.91;5091896;28;833;-66
2021/07/19 04:34:26;;;;;;;;;;;;;;;26.04;51.47;100527.91;5091499;28;1423;-65
2021/07/19 04:36:57;;;;;;;;;;;;;;;26.03;51.79;100528.88;5091155;28;734;-66
2021/07/19 04:39:24;;;;;;;;;;;;;;;26.03;51.52;100532.38;5091356;28;1251;-66
2021/07/19 04:41:51;;;;;;;;;;;;;;;26.03;51.88;100531.53;5090966;28;1242;-65
2021/07/19 04:44:18;;;;;;;;;;;;;;;26.02;51.43;100538.69;5072878;28;1405;-65
2021/07/19 04:46:45;;;;;;;;;;;;;;;26.02;51.48;100537.88;5091104;28;833;-66
2021/07/19 04:49:12;;;;;;;;;;;;;;;26.00;51.56;100540.66;5091210;28;1364;-65
2021/07/19 04:51:42;;;;;;;;;;;;;;;26.00;51.71;100537.16;5090768;28;1977;-66
2021/07/19 04:54:10;;;;;;;;;;;;;;;26.01;51.36;100541.53;5072702;28;1219;-65
2021/07/19 04:56:38;;;;;;;;;;;;;;;26.00;51.58;100540.66;5090574;28;792;-66
2021/07/19 04:59:05;;;;;;;;;;;;;;;26.01;51.27;100547.72;5090366;28;1275;-65
2021/07/19 05:01:33;;;;;;;;;;;;;;;26.01;51.22;100552.19;5090858;28;1249;-66
2021/07/19 05:04:01;;;;;;;;;;;;;;;26.01;51.05;100549.53;5090662;28;1362;-66
2021/07/19 05:06:28;;;;;;;;;;;;;;;26.02;51.14;100559.22;5090270;28;778;-65
2021/07/19 05:08:56;;;;;;;;;;;;;;;26.04;51.47;100562.59;5090565;28;1383;-66
2021/07/19 05:11:24;;;;;;;;;;;;;;;26.03;51.20;100552.88;5090683;28;2000;-65
2021/07/19 05:13:51;;;;;;;;;;;;;;;26.03;51.26;100560.91;5090617;28;1342;-65
2021/07/19 05:16:17;;;;;;;;;;;;;;;26.04;51.50;100557.25;5089784;28;810;-66
2021/07/19 05:18:45;;;;;;;;;;;;;;;26.03;51.57;100560.91;5090323;28;1279;-66
2021/07/19 05:21:12;;;;;;;;;;;;;;;26.04;51.62;100565.25;5090674;28;1242;-65
2021/07/19 05:23:38;;;;;;;;;;;;;;;26.03;51.62;100564.41;5090357;28;1279;-66
2021/07/19 05:26:05;;;;;;;;;;;;;;;26.02;51.61;100567.25;5090606;28;849;-66
2021/07/19 05:28:32;;;;;;;;;;;;;;;26.03;51.90;100566.22;5090307;28;1276;-65
2021/07/19 05:30:59;;;;;;;;;;;;;;;26.03;52.11;100564.41;5090056;28;1981;-66
2021/07/19 05:33:25;;;;;;;;;;;;;;;26.03;52.03;100567.09;5089781;28;1290;-66
2021/07/19 05:35:52;;;;;;;;;;;;;;;26.04;52.10;100568.78;5071523;28;1550;-66
2021/07/19 05:38:19;;;;;;;;;;;;;;;26.04;52.39;100573.28;5090018;28;1384;-65
2021/07/19 05:40:46;;;;;;;;;;;;;;;26.04;52.65;100567.94;5090080;28;763;-66
2021/07/19 05:43:13;;;;;;;;;;;;;;;26.03;52.77;100571.56;5071801;28;1348;-66
2021/07/19 05:45:40;;;;;;;;;;;;;;;26.03;53.10;100568.91;5071539;28;1707;-66
2021/07/19 05:48:07;;;;;;;;;;;;;;;26.04;52.94;100575.94;5089931;28;1256;-66
2021/07/19 05:50:34;;;;;;;;;;;;;;;26.04;53.28;100574.13;5089845;28;1918;-65
2021/07/19 05:53:01;;;;;;;;;;;;;;;26.06;52.68;100576.63;5089693;28;1232;-66
2021/07/19 05:55:29;;;;;;;;;;;;;;;26.08;52.89;100578.19;5089689;28;1244;-68
2021/07/19 05:58:01;;;;;;;;;;;;;;;26.11;52.35;100589.59;5091672;27;1475;-68
2021/07/19 06:00:28;;;;;;;;;;;;;;;26.11;52.01;100578.91;5097678;28;1345;-68
2021/07/19 06:02:56;;;;;;;;;;;;;;;26.12;52.11;100577.91;5071236;28;1416;-67
2021/07/19 06:05:23;;;;;;;;;;;;;;;26.13;51.71;100579.59;5088797;28;1188;-67
2021/07/19 06:07:50;;;;;;;;;;;;;;;26.15;51.47;100586.50;5089472;28;779;-66
2021/07/19 06:10:17;;;;;;;;;;;;;;;26.15;51.63;100580.28;5089500;28;1910;-66
2021/07/19 06:12:44;;;;;;;;;;;;;;;26.15;51.82;100577.63;5088604;28;763;-66
2021/07/19 06:15:11;;;;;;;;;;;;;;;26.16;51.93;100580.19;5088372;28;1354;-65
2021/07/19 06:17:38;;;;;;;;;;;;;;;26.17;51.59;100581.91;5070132;28;821;-66
2021/07/19 06:20:29;;;;;;;;;;;;;;;26.16;52.24;100577.53;5087584;28;1379;-66
2021/07/19 06:23:00;;;;;;;;;;;;;;;26.18;52.24;100580.03;5087913;28;995;-66
2021/07/19 06:25:30;;;;;;;;;;;;;;;26.19;51.75;100577.25;5087949;28;1078;-66
2021/07/19 06:27:57;;;;;;;;;;;;;;;26.19;51.92;100569.25;5088085;28;904;-67
2021/07/19 06:30:25;;;;;;;;;;;;;;;26.20;52.28;100570.94;5069468;28;1981;-67
2021/07/19 06:32:52;;;;;;;;;;;;;;;26.22;52.36;100573.47;5087909;28;1095;-67
2021/07/19 06:35:19;;;;;;;;;;;;;;;26.24;52.09;100574.16;5088137;28;1409;-66
2021/07/19 06:37:47;;;;;;;;;;;;;;;26.25;52.57;100567.84;5069427;28;1195;-65
2021/07/19 06:40:14;;;;;;;;;;;;;;;26.26;52.13;100578.41;5069464;28;1352;-67
2021/07/19 06:42:41;;;;;;;;;;;;;;;26.28;52.13;100571.06;5087400;28;853;-67
2021/07/19 06:45:09;;;;;;;;;;;;;;;26.28;52.12;100573.75;5087401;28;1437;-66
2021/07/19 06:47:36;;;;;;;;;;;;;;;26.30;52.37;100571.78;5087727;28;794;-67
2021/07/19 06:50:04;;;;;;;;;;;;;;;26.31;52.27;100570.78;5087535;28;1259;-67
2021/07/19 06:52:31;;;;;;;;;;;;;;;26.31;52.37;100570.78;5089839;28;1905;-68
2021/07/19 06:54:57;;;;;;;;;;;;;;;26.33;52.70;100573.31;5077876;28;1555;-67
2021/07/19 06:57:24;;;;;;;;;;;;;;;26.31;51.94;100570.78;5086827;28;853;-66
2021/07/19 06:59:51;;;;;;;;;;;;;;;26.32;52.67;100564.47;5068376;28;1785;-67
2021/07/19 07:02:17;;;;;;;;;;;;;;;26.34;52.05;100564.31;5087212;28;756;-67
2021/07/19 07:04:45;;;;;;;;;;;;;;;26.34;52.33;100564.31;5086955;28;1258;-67
2021/07/19 07:07:11;;;;;;;;;;;;;;;26.36;52.85;100570.34;5068924;28;1183;-67
2021/07/19 07:09:38;;;;;;;;;;;;;;;26.35;52.62;100574.88;5068653;28;1491;-67
2021/07/19 07:12:18;;;;;;;;;;;;;;;26.37;52.34;100582.75;5087267;28;1906;-70
2021/07/19 07:14:44;;;;;;;;;;;;;;;26.36;52.21;100573.88;5087378;28;1311;-69
2021/07/19 07:17:11;;;;;;;;;;;;;;;26.40;52.30;100585.97;5086499;28;798;-71
2021/07/19 07:19:38;;;;;;;;;;;;;;;26.41;52.44;100578.81;5069975;28;1764;-71
2021/07/19 07:22:05;;;;;;;;;;;;;;;26.41;52.98;100579.66;5088129;28;857;-72
2021/07/19 07:24:34;;;;;;;;;;;;;;;26.42;52.99;100580.47;5088349;28;1267;-73
2021/07/19 07:27:01;;;;;;;;;;;;;;;26.42;53.37;100585.81;5069528;28;1266;-70
2021/07/19 07:29:28;;;;;;;;;;;;;;;26.42;53.66;100578.66;5088397;28;1371;-70
2021/07/19 07:31:55;;;;;;;;;;;;;;;26.41;53.35;100582.34;5088096;28;1898;-70
2021/07/19 07:34:22;;;;;;;;;;;;;;;26.43;53.64;100590.19;5087710;28;1283;-72
2021/07/19 07:36:53;;;;;;;;;;;;;;;26.44;53.53;100587.38;5070390;28;1016;-73
2021/07/19 07:39:20;;;;;;;;;;;;;;;26.45;53.64;100588.22;5093928;28;1601;-70
2021/07/19 07:41:46;;;;;;;;;;;;;;;26.50;54.17;100592.16;5090008;28;786;-69
2021/07/19 07:44:13;;;;;;;;;;;;;;;26.57;54.07;100593.28;5105580;28;1610;-67
2021/07/19 07:46:41;;;;;;;;;;;;;;;26.54;53.49;100590.03;5105603;28;1577;-64
2021/07/19 07:49:09;;;;;;;;;;;;;;;26.53;53.89;100597.22;5071306;28;1359;-66
2021/07/19 07:51:35;;;;;;;;;;;;;;;26.53;53.72;100596.38;5105032;28;2007;-65
2021/07/19 07:54:02;;;;;;;;;;;;;;;26.53;54.04;100597.22;5106597;28;1290;-65
2021/07/19 07:56:29;;;;;;;;;;;;;;;26.53;53.58;100591.88;5088335;28;1334;-65
2021/07/19 07:58:55;;;;;;;;;;;;;;;26.57;53.75;100589.75;5088227;28;1408;-67
2021/07/19 08:01:23;;;;;;;;;;;;;;;26.55;53.68;100589.06;5088121;28;1264;-65
2021/07/19 08:03:50;;;;;;;;;;;;;;;26.54;53.70;100592.69;5106330;28;1282;-67
2021/07/19 08:06:17;;;;;;;;;;;;;;;26.55;53.77;100599.75;5088175;28;1256;-67
2021/07/19 08:08:44;;;;;;;;;;;;;;;26.55;53.85;100595.25;5088097;28;1368;-66
2021/07/19 08:11:11;;;;;;;;;;;;;;;26.57;53.90;100587.09;5106422;28;1964;-67
2021/07/19 08:13:38;;;;;;;;;;;;;;;26.56;53.69;100593.44;5105926;28;1271;-67
2021/07/19 08:16:05;;;;;;;;;;;;;;;26.56;53.82;100596.94;5106204;28;884;-68
2021/07/19 08:18:32;;;;;;;;;;;;;;;26.58;53.92;100594.13;5106054;28;1346;-68
2021/07/19 08:20:59;;;;;;;;;;;;;;;26.57;53.83;100587.94;5105917;28;1214;-67
2021/07/19 08:23:25;;;;;;;;;;;;;;;26.59;53.94;100591.31;5103475;28;1513;-65
2021/07/19 08:25:52;;;;;;;;;;;;;;;26.59;53.81;100588.66;5094883;28;1568;-66
2021/07/19 08:28:24;;;;;;;;;;;;;;;26.60;53.86;100586.78;5087491;28;1165;-67
2021/07/19 08:30:50;;;;;;;;;;;;;;;26.61;53.60;100580.47;5090808;28;1910;-67
2021/07/19 08:33:17;;;;;;;;;;;;;;;26.60;53.40;100576.97;5083077;28;1720;-66
2021/07/19 08:35:45;;;;;;;;;;;;;;;26.63;53.35;100575.00;5109921;28;1192;-66
2021/07/19 08:38:12;;;;;;;;;;;;;;;26.61;53.33;100567.97;5109297;28;1361;-65
2021/07/19 08:40:39;;;;;;;;;;;;;;;26.63;52.82;100573.16;5109607;28;1090;-66
2021/07/19 08:43:06;;;;;;;;;;;;;;;26.63;52.96;100572.34;5074543;28;1334;-66
2021/07/19 08:45:33;;;;;;;;;;;;;;;26.64;52.13;100569.50;5109771;28;1290;-67
2021/07/19 08:48:00;;;;;;;;;;;;;;;26.65;52.02;100568.53;5091655;28;1033;-67
2021/07/19 08:50:27;;;;;;;;;;;;;;;26.66;52.22;100561.38;5109825;28;1333;-66
2021/07/19 08:52:55;;;;;;;;;;;;;;;26.67;51.33;100565.69;5092096;28;1910;-65
2021/07/19 08:55:22;;;;;;;;;;;;;;;26.68;51.56;100562.06;5110212;28;1234;-67
2021/07/19 08:57:50;;;;;;;;;;;;;;;26.69;51.18;100563.75;5109701;28;796;-67
2021/07/19 09:00:18;;;;;;;;;;;;;;;26.68;50.47;100556.72;5109446;28;1385;-66
2021/07/19 09:02:45;;;;;;;;;;;;;;;26.68;50.46;100565.56;5109440;28;808;-67
2021/07/19 09:05:13;;;;;;;;;;;;;;;26.70;49.85;100560.91;5109962;28;1345;-70
2021/07/19 09:07:40;;;;;;;;;;;;;;;26.69;49.62;100563.75;5091350;28;1121;-69
2021/07/19 09:10:09;;;;;;;;;;;;;;;26.70;48.78;100562.75;5109840;28;1424;-69
2021/07/19 09:12:41;;;;;;;;;;;;;;;26.69;48.45;100569.91;5090879;28;2412;-70
2021/07/19 09:15:08;;;;;;;;;;;;;;;26.73;48.41;100571.31;5109785;28;1287;-69
2021/07/19 09:17:35;;;;;;;;;;;;;;;26.77;47.87;100571.88;5109929;28;873;-68
2021/07/19 09:20:04;;;;;;;;;;;;;;;26.76;48.93;100567.50;5109775;28;1298;-67
2021/07/19 09:22:32;;;;;;;;;;;;;;;26.76;49.11;100567.50;5109671;28;806;-68
2021/07/19 09:25:08;;;;;;;;;;;;;;;26.75;49.67;100579.22;5109030;28;1374;-69
2021/07/19 09:27:35;;;;;;;;;;;;;;;26.83;49.10;100576.69;5084232;28;1467;-68
2021/07/19 09:30:13;;;;;;;;;;;;;;;26.85;48.20;100575.56;5109928;28;1259;-65
2021/07/19 09:33:00;;;;;;;;;;;;;;;26.89;48.51;100573.44;5116092;28;1902;-63
2021/07/19 09:35:28;;;;;;;;;;;;;;;26.88;48.16;100577.94;5091422;28;2423;-64
2021/07/19 09:38:00;;;;;;;;;;;;;;;26.87;49.50;100567.41;5109076;28;1091;-66
2021/07/19 09:40:28;;;;;;;;;;;;;;;26.85;48.97;100574.69;5076483;28;1244;-64
2021/07/19 09:42:55;;;;;;;;;;;;;;;26.85;48.10;100566.69;5109300;28;845;-65
2021/07/19 09:45:23;;;;;;;;;;;;;;;26.85;49.27;100569.38;5108543;28;1466;-66
2021/07/19 09:47:49;;;;;;;;;;;;;;;26.86;48.41;100568.38;5108190;28;804;-64
2021/07/19 09:50:18;;;;;;;;;;;;;;;26.85;48.08;100569.38;5108870;28;1263;-64
2021/07/19 09:52:45;;;;;;;;;;;;;;;26.87;48.31;100567.41;5108336;28;1905;-65
2021/07/19 09:55:13;;;;;;;;;;;;;;;26.85;48.30;100556.00;5108849;28;1299;-65
2021/07/19 09:57:45;;;;;;;;;;;;;;;26.84;48.97;100559.69;5108081;28;786;-65
2021/07/19 10:00:12;;;;;;;;;;;;;;;26.84;48.77;100559.69;5108776;28;1247;-65
2021/07/19 10:02:41;;;;;;;;;;;;;;;26.82;48.45;100565.16;5109107;28;1024;-65
2021/07/19 10:05:10;;;;;;;;;;;;;;;26.81;48.59;100560.78;5109117;28;1381;-65
2021/07/19 10:07:47;;;;;;;;;;;;;;;26.81;48.79;100560.78;5108694;28;775;-65
2021/07/19 10:10:41;;;;;;;;;;;;;;;26.83;47.99;100558.84;5089984;28;1181;-65
2021/07/19 10:13:32;;;;;;;;;;;;;;;26.85;47.25;100559.53;5089853;28;1929;-66
2021/07/19 10:16:19;;;;;;;;;;;;;;;26.88;47.97;100553.88;5114337;28;1171;-67
2021/07/19 10:18:49;;;;;;;;;;;;;;;26.92;46.89;100549.09;5089795;28;1373;-69
2021/07/19 10:21:19;;;;;;;;;;;;;;;26.92;47.71;100546.44;5128809;28;828;-69
2021/07/19 10:23:46;;;;;;;;;;;;;;;26.93;46.74;100545.44;5102579;28;1365;-69
2021/07/19 10:26:13;;;;;;;;;;;;;;;26.97;46.40;100546.81;5110183;28;884;-71
2021/07/19 10:28:40;;;;;;;;;;;;;;;26.95;46.61;100554.16;5108972;28;1342;-68
2021/07/19 10:31:08;;;;;;;;;;;;;;;26.96;46.43;100561.19;5089998;28;1475;-68
2021/07/19 10:33:38;;;;;;;;;;;;;;;26.96;45.44;100545.16;5108256;28;1263;-70
2021/07/19 10:36:06;;;;;;;;;;;;;;;26.95;45.81;100549.66;5108645;28;837;-70
2021/07/19 10:38:34;;;;;;;;;;;;;;;27.03;45.39;100551.59;5089241;28;1461;-67
2021/07/19 10:41:03;;;;;;;;;;;;;;;27.17;45.44;100542.28;5105967;28;1078;-68
2021/07/19 10:43:30;;;;;;;;;;;;;;;27.15;45.41;100555.78;5086691;28;1635;-65
2021/07/19 10:46:12;;;;;;;;;;;;;;;27.13;45.20;100547.06;5086902;28;1236;-69
2021/07/19 10:48:44;;;;;;;;;;;;;;;27.04;45.95;100546.13;5087886;28;1357;-66
2021/07/19 10:51:15;;;;;;;;;;;;;;;27.08;45.56;100549.34;5104816;28;1287;-68
2021/07/19 10:53:42;;;;;;;;;;;;;;;27.06;46.25;100545.94;5104263;28;1548;-66
2021/07/19 10:56:12;;;;;;;;;;;;;;;27.03;45.69;100551.59;5106269;28;1279;-64
2021/07/19 10:58:45;;;;;;;;;;;;;;;27.07;45.52;100551.16;5104100;28;1241;-69
2021/07/19 11:01:24;;;;;;;;;;;;;;;27.14;45.29;100544.25;5084970;28;1248;-65
2021/07/19 11:03:54;;;;;;;;;;;;;;;27.13;45.36;100547.06;5105317;28;1283;-67
2021/07/19 11:06:31;;;;;;;;;;;;;;;27.12;45.04;100537.34;5106084;28;1158;-68
2021/07/19 11:09:02;;;;;;;;;;;;;;;27.12;44.83;100530.19;5078606;28;1360;-68
2021/07/19 11:11:31;;;;;;;;;;;;;;;27.24;44.70;100549.53;5105996;28;1913;-68
2021/07/19 11:14:02;;;;;;;;;;;;;;;27.21;44.46;100538.31;5106081;28;1403;-66
2021/07/19 11:16:45;;;;;;;;;;;;;;;27.26;44.84;100542.25;5106245;28;1240;-66
2021/07/19 11:19:14;;;;;;;;;;;;;;;27.26;44.62;100541.38;5086676;28;1299;-67
2021/07/19 11:21:42;;;;;;;;;;;;;;;27.33;44.30;100535.28;5106142;28;1228;-66
2021/07/19 11:24:16;;;;;;;;;;;;;;;27.33;44.18;100535.28;5105833;28;1646;-66
2021/07/19 11:26:54;;;;;;;;;;;;;;;27.29;44.89;100535.75;5070987;28;1229;-64
2021/07/19 11:29:34;;;;;;;;;;;;;;;27.26;44.86;100531.53;5068684;28;1295;-64
2021/07/19 11:32:18;;;;;;;;;;;;;;;27.25;45.51;100537.88;5087315;28;1913;-69
2021/07/19 11:34:46;;;;;;;;;;;;;;;27.22;46.04;100535.50;5104705;28;1271;-67
2021/07/19 11:37:18;;;;;;;;;;;;;;;27.22;46.18;100540.00;5083743;28;1197;-68
2021/07/19 11:39:46;;;;;;;;;;;;;;;27.22;46.45;100535.50;5063743;28;1357;-67
2021/07/19 11:42:15;;;;;;;;;;;;;;;27.22;46.58;100534.63;5082462;28;1568;-66
2021/07/19 11:44:43;;;;;;;;;;;;;;;27.24;46.79;100530.00;5086284;28;1449;-63
2021/07/19 11:47:15;;;;;;;;;;;;;;;27.26;46.63;100528.03;5102039;28;1279;-66
2021/07/19 11:49:43;;;;;;;;;;;;;;;27.24;47.22;100522.81;5097922;28;1354;-67
2021/07/19 11:52:09;;;;;;;;;;;;;;;27.25;47.34;100523.66;5101331;28;1905;-66
2021/07/19 11:54:39;;;;;;;;;;;;;;;27.25;47.22;100523.66;5102012;28;1728;-64
2021/07/19 11:57:09;;;;;;;;;;;;;;;27.28;47.59;100534.06;5087188;28;1466;-67
2021/07/19 11:59:41;;;;;;;;;;;;;;;27.30;47.20;100521.41;5102962;28;1342;-71
2021/07/19 12:02:08;;;;;;;;;;;;;;;27.32;47.45;100538.13;5102798;28;1376;-72
2021/07/19 12:04:39;;;;;;;;;;;;;;;27.32;46.99;100530.94;5105713;28;1584;-73
2021/07/19 12:07:10;;;;;;;;;;;;;;;27.31;47.59;100523.91;5109380;28;1272;-74
2021/07/19 12:09:39;;;;;;;;;;;;;;;27.30;47.76;100522.22;5066272;28;1379;-72
2021/07/19 12:12:09;;;;;;;;;;;;;;;27.32;47.15;100524.75;5103160;28;1980;-77
2021/07/19 12:14:37;;;;;;;;;;;;;;;27.30;47.72;100516.88;5102786;28;1361;-72
2021/07/19 12:17:05;;;;;;;;;;;;;;;27.31;47.77;100504.34;5083444;28;1702;-65
2021/07/19 12:19:35;;;;;;;;;;;;;;;27.29;48.05;100515.19;5082115;28;1648;-67
2021/07/19 12:22:03;;;;;;;;;;;;;;;27.30;48.29;100514.19;5089392;28;1495;-63
2021/07/19 12:24:37;;;;;;;;;;;;;;;27.30;48.25;100494.66;5090656;28;1441;-68
2021/07/19 12:27:05;;;;;;;;;;;;;;;27.31;48.35;100496.31;5109632;28;1109;-68
2021/07/19 12:29:36;;;;;;;;;;;;;;;27.30;48.31;100495.47;5091043;28;1255;-66
2021/07/19 12:32:05;;;;;;;;;;;;;;;27.33;48.60;100489.00;5090893;28;1922;-65
2021/07/19 12:34:34;;;;;;;;;;;;;;;27.35;47.90;100498.56;5109228;28;1319;-70
2021/07/19 12:37:04;;;;;;;;;;;;;;;27.39;48.08;100496.44;5108761;28;1212;-72
2021/07/19 12:39:38;;;;;;;;;;;;;;;27.37;47.06;100496.56;5108049;28;1577;-68
2021/07/19 12:42:10;;;;;;;;;;;;;;;27.22;46.94;100481.16;5110000;28;798;-67
2021/07/19 12:44:37;;;;;;;;;;;;;;;27.13;46.05;100493.59;5090870;28;1604;-68
2021/07/19 12:47:04;;;;;;;;;;;;;;;27.03;46.22;100488.28;5109628;28;830;-71
2021/07/19 12:49:51;;;;;;;;;;;;;;;27.02;45.22;100480.41;5110352;28;1291;-67
2021/07/19 12:52:19;;;;;;;;;;;;;;;26.98;45.10;100489.72;5092721;28;1979;-66
2021/07/19 12:55:08;;;;;;;;;;;;;;;26.90;44.66;100482.41;5068848;28;2045;-67